Time,TemperatureF,DewpointF,PressureIn,WindDirection,WindDirectionDegrees,WindSpeedMPH,WindSpeedGustMPH,Humidity,HourlyPrecipIn,Conditions,Clouds,dailyrainin,SoftwareType,DateUTC
2013-03-02 00:08:00,37.1,32.0,30.23,SSW,209,0.0,0.0,82,0.00,,,0.00,weatherlink.com 1.10,2013-03-02 08:08:00,
2013-03-02 00:24:00,38.4,33.0,30.23,SSW,209,0.0,0.0,82,0.00,,,0.00,weatherlink.com 1.10,2013-03-02 08:24:00,
2013-03-02 00:39:00,39.1,34.0,30.23,SSW,209,0.0,0.0,82,0.00,,,0.00,weatherlink.com 1.10,2013-03-02 08:39:00,
2013-03-02 00:54:00,39.8,34.0,30.23,SSW,209,0.0,0.0,80,0.00,,,0.00,weatherlink.com 1.10,2013-03-02 08:54:00,
2013-03-02 01:09:00,39.7,34.0,30.23,SSW,209,0.0,0.0,80,0.00,,,0.00,weatherlink.com 1.10,2013-03-02 09:09:00,
2013-03-02 01:24:00,39.3,34.0,30.23,SSW,209,0.0,0.0,81,0.00,,,0.00,weatherlink.com 1.10,2013-03-02 09:24:00,
2013-03-02 01:39:00,39.4,34.0,30.23,SSW,209,0.0,0.0,81,0.00,,,0.00,weatherlink.com 1.10,2013-03-02 09:39:00,
2013-03-02 01:54:00,39.5,34.0,30.22,SSW,209,0.0,0.0,82,0.00,,,0.00,weatherlink.com 1.10,2013-03-02 09:54:00,
2013-03-02 02:24:00,38.5,33.0,30.21,SSW,209,0.0,0.0,82,0.00,,,0.00,weatherlink.com 1.10,2013-03-02 10:24:00,
2013-03-02 02:39:00,38.1,33.0,30.21,SSW,209,0.0,0.0,82,0.00,,,0.00,weatherlink.com 1.10,2013-03-02 10:39:00,
2013-03-02 02:54:00,37.4,33.0,30.20,SSW,209,0.0,0.0,83,0.00,,,0.00,weatherlink.com 1.10,2013-03-02 10:54:00,
2013-03-02 03:10:00,36.8,32.0,30.19,SSW,209,0.0,0.0,84,0.00,,,0.00,weatherlink.com 1.10,2013-03-02 11:10:00,
2013-03-02 03:25:00,36.6,33.0,30.18,SSW,209,0.0,0.0,85,0.00,,,0.00,weatherlink.com 1.10,2013-03-02 11:25:00,
2013-03-02 03:40:00,38.1,34.0,30.18,SSW,209,0.0,0.0,85,0.00,,,0.00,weatherlink.com 1.10,2013-03-02 11:40:00,
2013-03-02 03:55:00,37.9,33.0,30.17,SSW,209,0.0,0.0,83,0.00,,,0.00,weatherlink.com 1.10,2013-03-02 11:55:00,
2013-03-02 04:10:00,37.3,33.0,30.17,SSW,209,0.0,0.0,84,0.00,,,0.00,weatherlink.com 1.10,2013-03-02 12:10:00,
2013-03-02 04:25:00,38.1,34.0,30.18,SSW,209,0.0,0.0,85,0.00,,,0.00,weatherlink.com 1.10,2013-03-02 12:25:00,
2013-03-02 04:41:00,38.6,34.0,30.18,SSW,209,0.0,0.0,84,0.00,,,0.00,weatherlink.com 1.10,2013-03-02 12:41:00,
2013-03-02 04:56:00,38.0,34.0,30.18,SSW,209,0.0,0.0,84,0.00,,,0.00,weatherlink.com 1.10,2013-03-02 12:56:00,
2013-03-02 05:11:00,37.9,34.0,30.17,SSW,209,0.0,0.0,85,0.00,,,0.00,weatherlink.com 1.10,2013-03-02 13:11:00,
2013-03-02 05:26:00,38.0,34.0,30.17,SSW,209,0.0,0.0,86,0.00,,,0.00,weatherlink.com 1.10,2013-03-02 13:26:00,
2013-03-02 05:41:00,38.0,34.0,30.17,SSW,209,0.0,0.0,85,0.00,,,0.00,weatherlink.com 1.10,2013-03-02 13:41:00,
2013-03-02 05:56:00,37.7,34.0,30.17,SSW,209,0.0,0.0,85,0.00,,,0.00,weatherlink.com 1.10,2013-03-02 13:56:00,
2013-03-02 06:11:00,37.7,34.0,30.16,SSW,209,0.0,0.0,85,0.00,,,0.00,weatherlink.com 1.10,2013-03-02 14:11:00,
2013-03-02 06:26:00,37.6,34.0,30.16,SSW,209,0.0,0.0,85,0.00,,,0.00,weatherlink.com 1.10,2013-03-02 14:26:00,
2013-03-02 06:42:00,37.7,34.0,30.16,SSW,209,0.0,0.0,86,0.00,,,0.00,weatherlink.com 1.10,2013-03-02 14:42:00,
2013-03-02 06:57:00,37.9,34.0,30.16,SSW,209,0.0,0.0,85,0.00,,,0.00,weatherlink.com 1.10,2013-03-02 14:57:00,
2013-03-02 07:12:00,37.7,34.0,30.16,SSW,209,0.0,0.0,86,0.00,,,0.00,weatherlink.com 1.10,2013-03-02 15:12:00,
2013-03-02 07:27:00,37.9,34.0,30.15,SSW,209,0.0,0.0,87,0.00,,,0.00,weatherlink.com 1.10,2013-03-02 15:27:00,
2013-03-02 07:42:00,38.6,35.0,30.14,SSW,209,0.0,0.0,86,0.00,,,0.00,weatherlink.com 1.10,2013-03-02 15:42:00,
2013-03-02 07:57:00,38.9,35.0,30.15,SSW,209,0.0,0.0,86,0.00,,,0.00,weatherlink.com 1.10,2013-03-02 15:57:00,
2013-03-02 08:12:00,39.4,35.0,30.15,SSW,209,0.0,0.0,85,0.00,,,0.00,weatherlink.com 1.10,2013-03-02 16:12:00,
2013-03-02 08:28:00,40.2,36.0,30.14,SSW,209,0.0,0.0,84,0.00,,,0.00,weatherlink.com 1.10,2013-03-02 16:28:00,
2013-03-02 08:44:00,41.0,36.0,30.14,SSW,209,0.0,0.0,82,0.00,,,0.00,weatherlink.com 1.10,2013-03-02 16:44:00,
2013-03-02 08:59:00,41.7,36.0,30.14,SSW,209,0.0,0.0,80,0.00,,,0.00,weatherlink.com 1.10,2013-03-02 16:59:00,
2013-03-02 09:14:00,42.7,37.0,30.14,SSW,209,0.0,0.0,79,0.00,,,0.00,weatherlink.com 1.10,2013-03-02 17:14:00,
2013-03-02 09:29:00,43.6,37.0,30.14,SSW,209,0.0,0.0,78,0.00,,,0.00,weatherlink.com 1.10,2013-03-02 17:29:00,
2013-03-02 09:44:00,44.1,37.0,30.13,SSW,209,0.0,0.0,76,0.00,,,0.00,weatherlink.com 1.10,2013-03-02 17:44:00,
2013-03-02 09:59:00,45.0,38.0,30.14,SSW,209,0.0,0.0,75,0.00,,,0.00,weatherlink.com 1.10,2013-03-02 17:59:00,
2013-03-02 10:14:00,45.4,37.0,30.14,SSW,209,0.0,2.0,73,0.00,,,0.00,weatherlink.com 1.10,2013-03-02 18:14:00,
2013-03-02 10:29:00,46.0,37.0,30.13,SSW,209,3.0,4.0,72,0.00,,,0.00,weatherlink.com 1.10,2013-03-02 18:29:00,
2013-03-02 10:44:00,46.7,38.0,30.12,SSW,208,0.0,0.0,71,0.00,,,0.00,weatherlink.com 1.10,2013-03-02 18:44:00,
2013-03-02 10:59:00,47.2,38.0,30.11,SSW,207,0.0,0.0,70,0.00,,,0.00,weatherlink.com 1.10,2013-03-02 18:59:00,
2013-03-02 11:14:00,47.4,38.0,30.11,SSW,207,0.0,0.0,70,0.00,,,0.00,weatherlink.com 1.10,2013-03-02 19:14:00,
2013-03-02 11:29:00,47.8,38.0,30.11,SSW,207,0.0,0.0,70,0.00,,,0.00,weatherlink.com 1.10,2013-03-02 19:29:00,
2013-03-02 11:45:00,49.2,39.0,30.11,SSW,207,0.0,0.0,68,0.00,,,0.00,weatherlink.com 1.10,2013-03-02 19:45:00,
2013-03-02 12:00:00,50.1,39.0,30.10,SSW,207,0.0,0.0,66,0.00,,,0.00,weatherlink.com 1.10,2013-03-02 20:00:00,
2013-03-02 12:15:00,50.2,39.0,30.10,SSW,207,0.0,0.0,66,0.00,,,0.00,weatherlink.com 1.10,2013-03-02 20:15:00,
2013-03-02 12:30:00,50.7,39.0,30.09,SSW,207,0.0,0.0,64,0.00,,,0.00,weatherlink.com 1.10,2013-03-02 20:30:00,
2013-03-02 12:45:00,51.1,40.0,30.09,SSW,207,0.0,0.0,65,0.00,,,0.00,weatherlink.com 1.10,2013-03-02 20:45:00,
2013-03-02 13:00:00,51.9,40.0,30.09,SSW,207,0.0,0.0,63,0.00,,,0.00,weatherlink.com 1.10,2013-03-02 21:00:00,
2013-03-02 13:16:00,52.1,40.0,30.07,SE,125,0.0,0.0,63,0.00,,,0.00,weatherlink.com 1.10,2013-03-02 21:16:00,
2013-03-02 13:31:00,51.9,40.0,30.07,ESE,107,0.0,2.0,64,0.00,,,0.00,weatherlink.com 1.10,2013-03-02 21:31:00,
2013-03-02 13:46:00,51.5,40.0,30.07,East,96,0.0,6.0,65,0.00,,,0.00,weatherlink.com 1.10,2013-03-02 21:46:00,
2013-03-02 14:01:00,50.9,39.0,30.06,NE,53,4.0,6.0,65,0.00,,,0.00,weatherlink.com 1.10,2013-03-02 22:01:00,
2013-03-02 14:16:00,50.6,39.0,30.07,NE,47,0.0,2.0,65,0.00,,,0.00,weatherlink.com 1.10,2013-03-02 22:16:00,
2013-03-02 14:31:00,50.6,39.0,30.06,NE,46,0.0,4.0,65,0.00,,,0.00,weatherlink.com 1.10,2013-03-02 22:31:00,
2013-03-02 14:46:00,50.5,39.0,30.06,NE,45,0.0,0.0,65,0.00,,,0.00,weatherlink.com 1.10,2013-03-02 22:46:00,
2013-03-02 15:02:00,50.5,39.0,30.06,NE,45,0.0,0.0,65,0.00,,,0.00,weatherlink.com 1.10,2013-03-02 23:02:00,
2013-03-02 15:17:00,50.8,39.0,30.06,NE,45,0.0,0.0,65,0.00,,,0.00,weatherlink.com 1.10,2013-03-02 23:17:00,
2013-03-02 15:32:00,50.6,40.0,30.06,NE,45,0.0,0.0,67,0.00,,,0.00,weatherlink.com 1.10,2013-03-02 23:32:00,
2013-03-02 15:47:00,50.7,40.0,30.06,NE,45,0.0,0.0,66,0.00,,,0.00,weatherlink.com 1.10,2013-03-02 23:47:00,
2013-03-02 16:02:00,50.6,40.0,30.06,NE,45,0.0,0.0,66,0.00,,,0.00,weatherlink.com 1.10,2013-03-03 00:02:00,
2013-03-02 16:17:00,49.6,40.0,30.06,NE,45,0.0,1.0,70,0.00,,,0.00,weatherlink.com 1.10,2013-03-03 00:17:00,
2013-03-02 16:32:00,49.6,39.0,30.06,NNE,17,0.0,5.0,67,0.00,,,0.00,weatherlink.com 1.10,2013-03-03 00:32:00,
2013-03-02 16:50:00,52.4,37.0,30.06,West,272,6.0,15.0,56,0.00,,,0.00,weatherlink.com 1.10,2013-03-03 00:50:00,
2013-03-02 17:04:00,52.4,37.0,30.06,West,275,5.0,13.0,56,0.00,,,0.00,weatherlink.com 1.10,2013-03-03 01:04:00,
2013-03-02 17:19:00,52.3,36.0,30.06,WSW,252,10.0,15.0,55,0.00,,,0.00,weatherlink.com 1.10,2013-03-03 01:19:00,
2013-03-02 17:35:00,52.0,36.0,30.06,West,273,10.0,18.0,55,0.00,,,0.00,weatherlink.com 1.10,2013-03-03 01:35:00,
2013-03-02 17:50:00,51.7,36.0,30.06,West,267,7.0,19.0,56,0.00,,,0.00,weatherlink.com 1.10,2013-03-03 01:50:00,
2013-03-02 18:05:00,51.2,37.0,30.06,West,262,12.0,15.0,58,0.00,,,0.00,weatherlink.com 1.10,2013-03-03 02:05:00,
2013-03-02 18:20:00,50.8,37.0,30.06,West,259,5.0,16.0,59,0.00,,,0.00,weatherlink.com 1.10,2013-03-03 02:20:00,
2013-03-02 18:35:00,50.5,36.0,30.06,West,263,5.0,11.0,59,0.00,,,0.00,weatherlink.com 1.10,2013-03-03 02:35:00,
2013-03-02 18:50:00,49.9,37.0,30.06,West,259,2.0,3.0,61,0.00,,,0.00,weatherlink.com 1.10,2013-03-03 02:50:00,
2013-03-02 19:05:00,49.8,37.0,30.07,West,271,6.0,13.0,61,0.00,,,0.00,weatherlink.com 1.10,2013-03-03 03:05:00,
2013-03-02 19:20:00,49.7,37.0,30.07,WSW,246,7.0,11.0,62,0.00,,,0.00,weatherlink.com 1.10,2013-03-03 03:20:00,
2013-03-02 19:35:00,49.1,37.0,30.06,SW,221,6.0,8.0,63,0.00,,,0.00,weatherlink.com 1.10,2013-03-03 03:35:00,
2013-03-02 19:50:00,49.0,37.0,30.05,West,261,9.0,13.0,63,0.00,,,0.00,weatherlink.com 1.10,2013-03-03 03:50:00,
2013-03-02 20:05:00,48.7,37.0,30.06,West,272,11.0,16.0,64,0.00,,,0.00,weatherlink.com 1.10,2013-03-03 04:05:00,
2013-03-02 20:19:00,48.3,37.0,30.05,West,267,9.0,11.0,65,0.00,,,0.00,weatherlink.com 1.10,2013-03-03 04:19:00,
2013-03-02 20:35:00,48.3,37.0,30.05,SW,234,4.0,14.0,65,0.00,,,0.00,weatherlink.com 1.10,2013-03-03 04:35:00,
2013-03-02 20:50:00,47.6,37.0,30.05,SW,218,6.0,8.0,67,0.00,,,0.00,weatherlink.com 1.10,2013-03-03 04:50:00,
2013-03-02 21:05:00,47.6,37.0,30.05,SW,223,5.0,12.0,67,0.00,,,0.00,weatherlink.com 1.10,2013-03-03 05:05:00,
2013-03-02 21:21:00,46.7,37.0,30.05,SW,225,4.0,9.0,70,0.00,,,0.00,weatherlink.com 1.10,2013-03-03 05:21:00,
2013-03-02 21:36:00,46.3,37.0,30.05,SSW,206,5.0,10.0,71,0.00,,,0.00,weatherlink.com 1.10,2013-03-03 05:36:00,
2013-03-02 21:51:00,45.8,37.0,30.05,SW,217,7.0,8.0,71,0.00,,,0.00,weatherlink.com 1.10,2013-03-03 05:51:00,
2013-03-02 22:06:00,45.6,37.0,30.05,South,191,5.0,10.0,71,0.00,,,0.00,weatherlink.com 1.10,2013-03-03 06:06:00,
2013-03-02 22:21:00,45.4,36.0,30.05,SW,214,0.0,7.0,71,0.00,,,0.00,weatherlink.com 1.10,2013-03-03 06:21:00,
2013-03-02 22:36:00,45.0,36.0,30.06,West,265,0.0,7.0,72,0.00,,,0.00,weatherlink.com 1.10,2013-03-03 06:36:00,
2013-03-02 22:51:00,42.9,36.0,30.07,NW,326,14.0,19.0,76,0.00,,,0.00,weatherlink.com 1.10,2013-03-03 06:51:00,
2013-03-02 23:06:00,41.8,34.0,30.07,NW,324,8.0,20.0,74,0.00,,,0.00,weatherlink.com 1.10,2013-03-03 07:06:00,
2013-03-02 23:21:00,41.0,34.0,30.07,NNW,329,18.0,18.0,76,0.00,,,0.00,weatherlink.com 1.10,2013-03-03 07:21:00,
2013-03-02 23:36:00,40.5,32.0,30.07,NW,304,14.0,20.0,72,0.00,,,0.00,weatherlink.com 1.10,2013-03-03 07:36:00,
2013-03-02 23:51:00,40.1,32.0,30.07,NW,321,10.0,17.0,72,0.00,,,0.00,weatherlink.com 1.10,2013-03-03 07:51:00,